createdAt,value
2022-08-26T00:00:35.653Z,72.28
2022-08-26T00:03:39.320Z,72.34
2022-08-26T00:06:42.465Z,72.48
2022-08-26T00:09:49.963Z,72.99
2022-08-26T00:12:52.114Z,73.22
2022-08-26T00:15:54.160Z,72.78
2022-08-26T00:18:56.652Z,72.79
2022-08-26T00:21:58.410Z,72.83
2022-08-26T00:25:00.230Z,72.87
2022-08-26T00:28:02.036Z,73.10
2022-08-26T00:31:04.609Z,72.69
2022-08-26T00:34:09.513Z,72.98
2022-08-26T00:37:16.135Z,72.85
2022-08-26T00:40:23.571Z,72.35
2022-08-26T00:43:27.078Z,72.39
2022-08-26T00:46:31.700Z,72.74
2022-08-26T00:49:43.910Z,73.20
2022-08-26T00:52:46.566Z,73.27
2022-08-26T00:55:59.658Z,72.76
2022-08-26T00:59:06.313Z,73.13
2022-08-26T01:02:08.831Z,72.79
2022-08-26T01:05:23.209Z,73.50
2022-08-26T01:08:28.365Z,73.64
2022-08-26T01:11:32.051Z,73.48
2022-08-26T01:14:36.707Z,73.48
2022-08-26T01:17:39.627Z,73.60
2022-08-26T01:20:57.736Z,73.67
2022-08-26T01:24:00.080Z,73.09
2022-08-26T01:27:07.878Z,73.42
2022-08-26T01:30:11.916Z,73.30
2022-08-26T01:33:19.405Z,74.16
2022-08-26T01:36:21.447Z,74.20
2022-08-26T01:39:23.699Z,74.01
2022-08-26T01:42:27.330Z,73.36
2022-08-26T01:45:33.586Z,73.55
2022-08-26T01:48:37.991Z,73.26
2022-08-26T01:51:41.050Z,73.95
2022-08-26T01:54:42.978Z,73.83
2022-08-26T01:57:51.359Z,74.03
2022-08-26T02:00:58.603Z,74.20
2022-08-26T02:04:25.689Z,74.27
2022-08-26T02:07:28.611Z,74.46
2022-08-26T02:10:30.420Z,74.65
2022-08-26T02:13:34.915Z,74.33
2022-08-26T02:16:42.140Z,74.79
2022-08-26T02:19:47.366Z,74.08
2022-08-26T02:22:49.973Z,73.99
2022-08-26T02:26:05.708Z,73.87
2022-08-26T02:29:23.731Z,74.16
2022-08-26T02:32:25.846Z,74.48
2022-08-26T02:35:30.323Z,74.26
2022-08-26T02:38:32.973Z,74.57
2022-08-26T02:41:35.302Z,74.30
2022-08-26T02:44:46.576Z,74.58
2022-08-26T02:47:49.935Z,74.44
2022-08-26T02:50:52.152Z,74.43
2022-08-26T02:53:54.400Z,75.05
2022-08-26T02:56:57.699Z,75.13
2022-08-26T03:00:00.851Z,75.22
2022-08-26T03:03:03.839Z,74.87
2022-08-26T03:06:05.887Z,74.86
2022-08-26T03:09:08.535Z,74.85
2022-08-26T03:12:11.769Z,75.10
2022-08-26T03:15:18.402Z,75.14
2022-08-26T03:18:20.558Z,74.83
2022-08-26T03:21:22.411Z,75.31
2022-08-26T03:24:25.462Z,75.02
2022-08-26T03:27:27.207Z,75.60
2022-08-26T03:30:44.677Z,75.46
2022-08-26T03:33:48.216Z,75.12
2022-08-26T03:36:54.318Z,75.56
2022-08-26T03:39:56.673Z,75.41
2022-08-26T03:43:01.016Z,76.06
2022-08-26T03:46:09.445Z,75.86
2022-08-26T03:49:11.497Z,76.29
2022-08-26T03:52:13.516Z,75.43
2022-08-26T03:55:16.488Z,75.24
2022-08-26T03:58:20.705Z,75.30
2022-08-26T04:01:23.157Z,75.16
2022-08-26T04:04:25.759Z,75.14
2022-08-26T04:07:28.094Z,75.07
2022-08-26T04:10:33.780Z,75.33
2022-08-26T04:13:35.523Z,75.72
2022-08-26T04:16:37.416Z,75.32
2022-08-26T04:19:41.127Z,75.26
2022-08-26T04:22:43.226Z,74.62
2022-08-26T04:25:45.274Z,74.27
2022-08-26T04:28:49.156Z,73.80
2022-08-26T04:31:55.447Z,73.95
2022-08-26T04:34:57.546Z,74.22
2022-08-26T04:37:59.773Z,73.86
2022-08-26T04:41:03.268Z,73.36
2022-08-26T04:44:07.843Z,73.11
2022-08-26T04:47:09.693Z,73.40
2022-08-26T04:50:15.196Z,72.92
2022-08-26T04:53:17.893Z,72.97
2022-08-26T04:56:19.698Z,72.44
2022-08-26T04:59:25.158Z,71.95
2022-08-26T05:02:30.424Z,70.71
2022-08-26T05:05:32.213Z,70.43
2022-08-26T05:08:34.051Z,69.69
2022-08-26T05:11:37.306Z,69.70
2022-08-26T05:14:41.260Z,69.17
2022-08-26T05:17:43.281Z,68.50
2022-08-26T05:20:48.990Z,68.17
2022-08-26T05:23:52.082Z,68.13
2022-08-26T05:26:53.878Z,67.71
2022-08-26T05:29:59.039Z,67.25
2022-08-26T05:33:01.926Z,67.08
2022-08-26T05:36:13.074Z,66.00
2022-08-26T05:39:15.210Z,65.90
2022-08-26T05:42:17.208Z,65.08
2022-08-26T05:45:20.256Z,64.24
2022-08-26T05:48:24.211Z,64.16
2022-08-26T05:51:26.668Z,62.85
2022-08-26T05:54:34.827Z,63.20
2022-08-26T05:57:42.227Z,62.50
2022-08-26T06:00:45.480Z,62.18
2022-08-26T06:03:51.744Z,62.09
2022-08-26T06:06:53.612Z,61.32
2022-08-26T06:10:09.969Z,60.84
2022-08-26T06:13:18.487Z,59.86
2022-08-26T06:16:24.179Z,59.73
2022-08-26T06:19:26.046Z,59.65
2022-08-26T06:22:53.597Z,58.75
2022-08-26T06:25:55.422Z,58.18
2022-08-26T06:28:59.342Z,57.82
2022-08-26T06:32:04.737Z,55.27
2022-08-26T06:35:07.302Z,55.47
2022-08-26T06:38:16.199Z,55.97
2022-08-26T06:41:21.011Z,55.01
2022-08-26T06:44:23.311Z,54.52
2022-08-26T06:47:25.674Z,55.02
2022-08-26T06:50:30.091Z,54.62
2022-08-26T06:53:32.200Z,53.38
2022-08-26T06:56:41.182Z,54.15
2022-08-26T06:59:42.904Z,52.73
2022-08-26T07:02:46.986Z,52.27
2022-08-26T07:05:49.373Z,53.29
2022-08-26T07:09:01.762Z,51.79
2022-08-26T07:12:06.804Z,51.62
2022-08-26T07:15:10.272Z,50.20
2022-08-26T07:18:12.172Z,49.26
2022-08-26T07:21:18.253Z,48.89
2022-08-26T07:24:20.101Z,48.11
2022-08-26T07:27:22.787Z,49.30
2022-08-26T07:30:25.763Z,49.30
2022-08-26T07:33:29.141Z,46.10
2022-08-26T07:36:32.514Z,45.01
2022-08-26T07:39:34.742Z,45.72
2022-08-26T07:42:36.840Z,45.58
2022-08-26T07:45:38.610Z,45.53
2022-08-26T07:48:40.536Z,44.31
2022-08-26T07:51:49.302Z,44.94
2022-08-26T07:54:51.097Z,45.42
2022-08-26T07:57:52.984Z,44.46
2022-08-26T08:00:54.841Z,44.01
2022-08-26T08:03:56.641Z,46.02
2022-08-26T08:06:58.523Z,45.22
2022-08-26T08:10:05.590Z,44.21
2022-08-26T08:13:11.927Z,43.37
2022-08-26T08:16:16.631Z,42.60
2022-08-26T08:19:18.753Z,42.92
2022-08-26T08:22:23.586Z,42.92
2022-08-26T08:25:26.177Z,41.03
2022-08-26T08:28:28.575Z,41.79
2022-08-26T08:34:54.899Z,38.83
2022-08-26T08:37:57.169Z,38.57
2022-08-26T08:40:59.026Z,37.10
2022-08-26T08:44:02.360Z,36.97
2022-08-26T08:47:11.790Z,38.02
2022-08-26T08:50:31.770Z,38.82
2022-08-26T08:53:35.848Z,38.89
2022-08-26T08:56:59.747Z,38.24
2022-08-26T09:00:12.031Z,37.43
2022-08-26T09:03:49.031Z,37.47
2022-08-26T09:06:55.572Z,38.39
2022-08-26T09:10:06.539Z,39.35
2022-08-26T09:13:13.689Z,38.28
2022-08-26T09:16:32.368Z,38.85
2022-08-26T09:19:47.647Z,38.66
2022-08-26T09:22:49.507Z,37.82
2022-08-26T09:26:00.193Z,39.24
2022-08-26T09:29:05.665Z,37.34
2022-08-26T09:32:22.128Z,37.08
2022-08-26T09:35:41.423Z,36.79
2022-08-26T09:38:44.491Z,37.21
2022-08-26T09:42:02.755Z,36.73
2022-08-26T09:45:10.428Z,36.96
2022-08-26T09:48:23.582Z,35.27
2022-08-26T09:51:32.209Z,34.98
2022-08-26T09:54:37.760Z,36.29
2022-08-26T09:57:54.932Z,36.45
2022-08-26T10:00:58.924Z,34.71
2022-08-26T10:04:12.729Z,33.44
2022-08-26T10:07:21.507Z,34.09
2022-08-26T10:10:26.743Z,32.53
2022-08-26T10:13:31.605Z,31.46
2022-08-26T10:16:50.724Z,32.09
2022-08-26T10:20:23.338Z,31.48
2022-08-26T10:23:29.808Z,31.24
2022-08-26T10:26:45.261Z,31.11
2022-08-26T10:29:50.725Z,30.30
2022-08-26T10:33:00.790Z,29.19
2022-08-26T10:36:30.303Z,29.47
2022-08-26T10:39:37.021Z,28.74
2022-08-26T10:43:00.551Z,30.85
2022-08-26T10:46:16.355Z,30.53
2022-08-26T10:49:18.860Z,29.04
2022-08-26T10:52:46.341Z,29.52
2022-08-26T10:56:15.779Z,30.96
2022-08-26T10:59:34.119Z,30.06
2022-08-26T11:02:48.334Z,31.81
2022-08-26T11:06:21.276Z,30.82
2022-08-26T11:09:45.254Z,30.14
2022-08-26T11:12:49.743Z,28.92
2022-08-26T11:15:54.258Z,29.02
2022-08-26T11:18:56.063Z,29.15
2022-08-26T11:22:24.925Z,29.74
2022-08-26T11:25:30.959Z,29.51
2022-08-26T11:28:35.557Z,28.42
2022-08-26T11:31:40.419Z,29.75
2022-08-26T11:34:54.054Z,29.29
2022-08-26T11:38:15.121Z,29.40
2022-08-26T11:41:24.290Z,29.60
2022-08-26T11:44:35.887Z,29.74
2022-08-26T11:47:37.754Z,29.53
2022-08-26T11:50:39.435Z,29.80
2022-08-26T11:53:44.957Z,27.72
2022-08-26T11:56:52.491Z,27.83
2022-08-26T11:59:55.385Z,28.21
2022-08-26T12:03:00.411Z,28.36
2022-08-26T12:06:03.267Z,29.92
2022-08-26T12:09:20.153Z,29.12
2022-08-26T12:12:34.663Z,28.95
2022-08-26T12:15:37.014Z,28.71
2022-08-26T12:18:39.155Z,28.73
2022-08-26T12:21:40.939Z,28.85
2022-08-26T12:24:47.881Z,28.22
2022-08-26T12:27:53.737Z,29.35
2022-08-26T12:31:06.509Z,30.13
2022-08-26T12:34:13.111Z,29.70
2022-08-26T12:37:20.091Z,28.89
2022-08-26T12:40:31.156Z,28.75
2022-08-26T12:43:45.036Z,28.65
2022-08-26T12:46:49.738Z,28.19
2022-08-26T12:50:09.612Z,29.89
2022-08-26T12:53:11.298Z,29.54
2022-08-26T12:56:24.797Z,28.39
2022-08-26T12:59:26.787Z,29.95
2022-08-26T13:02:36.089Z,29.13
2022-08-26T13:05:37.994Z,28.62
2022-08-26T13:08:42.599Z,29.44
2022-08-26T13:11:44.942Z,28.56
2022-08-26T13:14:47.145Z,29.88
2022-08-26T13:17:48.825Z,29.75
2022-08-26T13:20:50.675Z,29.72
2022-08-26T13:23:53.099Z,29.71
2022-08-26T13:26:54.914Z,29.04
2022-08-26T13:29:57.841Z,28.95
2022-08-26T13:33:01.083Z,28.26
2022-08-26T13:36:04.611Z,28.74
2022-08-26T13:39:06.616Z,28.66
2022-08-26T13:42:08.994Z,29.10
2022-08-26T13:45:11.303Z,29.48
2022-08-26T13:48:13.177Z,29.16
2022-08-26T13:51:16.527Z,30.40
2022-08-26T13:54:18.324Z,31.22
2022-08-26T13:57:20.095Z,31.37
2022-08-26T14:00:22.317Z,31.20
2022-08-26T14:03:25.007Z,30.88
2022-08-26T14:06:26.879Z,30.44
2022-08-26T14:09:28.621Z,30.22
2022-08-26T14:12:30.525Z,30.56
2022-08-26T14:15:37.765Z,32.09
2022-08-26T14:18:42.557Z,31.14
2022-08-26T14:21:46.417Z,31.59
2022-08-26T14:24:49.253Z,30.70
2022-08-26T14:27:53.206Z,31.55
2022-08-26T14:30:57.499Z,31.51
2022-08-26T14:34:03.365Z,31.30
2022-08-26T14:37:07.391Z,31.58
2022-08-26T14:40:10.729Z,31.09
2022-08-26T14:43:15.901Z,30.91
2022-08-26T14:46:18.401Z,30.85
2022-08-26T14:49:21.891Z,32.41
2022-08-26T14:52:23.940Z,32.48
2022-08-26T14:55:26.778Z,32.52
2022-08-26T14:58:34.944Z,33.22
2022-08-26T15:01:37.778Z,32.64
2022-08-26T15:04:40.598Z,32.12
2022-08-26T15:07:42.302Z,32.44
2022-08-26T15:10:44.352Z,31.79
2022-08-26T15:13:46.422Z,31.95
2022-08-26T15:16:51.090Z,31.55
2022-08-26T15:19:52.849Z,32.12
2022-08-26T15:22:54.719Z,32.02
2022-08-26T15:25:56.743Z,32.17
2022-08-26T15:29:02.992Z,32.55
2022-08-26T15:32:06.661Z,32.09
2022-08-26T15:35:09.447Z,32.89
2022-08-26T15:38:12.548Z,33.28
2022-08-26T15:41:14.502Z,33.33
2022-08-26T15:44:17.208Z,33.71
2022-08-26T15:47:19.318Z,33.01
2022-08-26T15:50:21.430Z,33.30
2022-08-26T15:53:24.455Z,33.63
2022-08-26T15:56:28.552Z,33.13
2022-08-26T15:59:33.192Z,33.85
2022-08-26T16:02:35.269Z,34.19
2022-08-26T16:05:39.047Z,34.01
2022-08-26T16:08:41.542Z,33.77
2022-08-26T16:11:43.523Z,33.84
2022-08-26T16:14:45.478Z,34.33
2022-08-26T16:17:47.364Z,34.31
2022-08-26T16:21:12.470Z,35.38
2022-08-26T16:24:14.397Z,35.93
2022-08-26T16:27:16.241Z,35.95
2022-08-26T16:30:19.765Z,36.55
2022-08-26T16:33:29.114Z,37.03
2022-08-26T16:36:32.109Z,37.57
2022-08-26T16:39:33.826Z,38.42
2022-08-26T16:42:42.038Z,38.00
2022-08-26T16:45:43.946Z,37.58
2022-08-26T16:48:45.859Z,38.49
2022-08-26T16:51:47.625Z,38.17
2022-08-26T16:54:49.515Z,39.01
2022-08-26T16:57:52.048Z,39.04
2022-08-26T17:00:53.854Z,39.84
2022-08-26T17:03:55.626Z,40.16
2022-08-26T17:06:58.025Z,40.49
2022-08-26T17:09:59.865Z,40.41
2022-08-26T17:13:01.662Z,40.68
2022-08-26T17:16:08.668Z,41.06
2022-08-26T17:19:11.150Z,41.48
2022-08-26T17:22:13.492Z,42.06
2022-08-26T17:25:28.148Z,42.42
2022-08-26T17:28:30.023Z,43.02
2022-08-26T17:31:32.587Z,43.35
2022-08-26T17:34:35.043Z,44.09
2022-08-26T17:37:36.887Z,44.43
2022-08-26T17:40:39.600Z,44.72
2022-08-26T17:43:41.895Z,44.48
2022-08-26T17:46:43.816Z,44.68
2022-08-26T17:49:45.701Z,44.81
2022-08-26T17:52:47.683Z,46.12
2022-08-26T17:55:49.864Z,46.15
2022-08-26T17:58:53.793Z,46.01
2022-08-26T18:01:58.664Z,46.06
2022-08-26T18:05:00.783Z,46.41
2022-08-26T18:08:02.911Z,47.54
2022-08-26T18:11:20.440Z,48.62
2022-08-26T18:14:22.484Z,48.51
2022-08-26T18:17:24.551Z,48.31
2022-08-26T18:20:26.755Z,48.15
2022-08-26T18:23:31.489Z,48.07
2022-08-26T18:26:39.126Z,47.10
2022-08-26T18:29:45.641Z,46.94
2022-08-26T18:32:51.829Z,47.31
2022-08-26T18:35:56.412Z,47.41
2022-08-26T18:38:58.973Z,47.19
2022-08-26T18:42:01.014Z,47.09
2022-08-26T18:45:04.855Z,47.42
2022-08-26T18:48:08.068Z,47.68
2022-08-26T18:51:19.768Z,47.70
2022-08-26T18:54:21.825Z,48.20
2022-08-26T18:57:24.196Z,49.21
2022-08-26T19:00:26.010Z,49.90
2022-08-26T19:03:28.767Z,50.54
2022-08-26T19:06:33.048Z,51.00
2022-08-26T19:09:36.049Z,51.36
2022-08-26T19:12:38.454Z,51.74
2022-08-26T19:15:43.347Z,51.54
2022-08-26T19:18:45.664Z,51.73
2022-08-26T19:21:48.158Z,51.59
2022-08-26T19:24:50.062Z,51.39
2022-08-26T19:27:52.014Z,51.35
2022-08-26T19:30:53.846Z,51.52
2022-08-26T19:33:58.044Z,52.15
2022-08-26T19:37:00.065Z,52.36
2022-08-26T19:40:02.211Z,52.38
2022-08-26T19:43:04.988Z,52.74
2022-08-26T19:46:18.496Z,53.11
2022-08-26T19:49:20.322Z,53.00
2022-08-26T19:52:23.952Z,53.81
2022-08-26T19:55:32.136Z,53.63
2022-08-26T19:58:34.113Z,54.28
2022-08-26T20:01:35.968Z,54.53
2022-08-26T20:04:38.538Z,54.81
2022-08-26T20:07:40.630Z,55.48
2022-08-26T20:10:42.475Z,56.01
2022-08-26T20:13:47.152Z,56.29
2022-08-26T20:16:49.395Z,56.59
2022-08-26T20:20:26.846Z,57.30
2022-08-26T20:23:31.484Z,56.78
2022-08-26T20:26:35.317Z,56.81
2022-08-26T20:29:38.511Z,57.54
2022-08-26T20:32:41.593Z,57.68
2022-08-26T20:35:43.524Z,58.06
2022-08-26T20:38:45.992Z,58.47
2022-08-26T20:41:48.096Z,58.10
2022-08-26T20:44:54.226Z,59.07
2022-08-26T20:47:56.725Z,59.24
2022-08-26T20:50:59.779Z,59.24
2022-08-26T20:54:01.636Z,59.14
2022-08-26T20:57:03.531Z,59.38
2022-08-26T21:00:06.486Z,59.48
2022-08-26T21:03:08.243Z,59.19
2022-08-26T21:06:10.489Z,59.59
2022-08-26T21:09:14.584Z,59.73
2022-08-26T21:12:18.164Z,59.11
2022-08-26T21:15:20.019Z,59.48
2022-08-26T21:18:21.875Z,60.61
2022-08-26T21:21:27.386Z,60.06
2022-08-26T21:24:29.183Z,60.16
2022-08-26T21:27:31.187Z,60.23
2022-08-26T21:30:34.251Z,61.00
2022-08-26T21:33:36.324Z,60.78
2022-08-26T21:36:38.142Z,61.34
2022-08-26T21:39:40.003Z,60.88
2022-08-26T21:42:41.981Z,61.54
2022-08-26T21:45:43.834Z,61.34
2022-08-26T21:48:51.310Z,61.76
2022-08-26T21:51:53.235Z,61.88
2022-08-26T21:54:59.945Z,62.32
2022-08-26T21:58:02.429Z,62.26
2022-08-26T22:01:09.535Z,61.88
2022-08-26T22:04:11.520Z,61.09
2022-08-26T22:07:13.487Z,61.23
2022-08-26T22:10:15.335Z,61.62
2022-08-26T22:13:21.849Z,61.45
2022-08-26T22:16:26.886Z,61.50
2022-08-26T22:19:31.747Z,61.44
2022-08-26T22:22:35.980Z,62.20
2022-08-26T22:25:38.109Z,62.69
2022-08-26T22:28:40.108Z,63.14
2022-08-26T22:31:43.497Z,63.20
2022-08-26T22:34:45.499Z,63.66
2022-08-26T22:37:47.473Z,63.65
2022-08-26T22:40:52.005Z,64.26
2022-08-26T22:43:54.101Z,64.06
2022-08-26T22:46:56.038Z,63.67
2022-08-26T22:49:59.418Z,63.68
2022-08-26T22:53:01.248Z,64.28
2022-08-26T22:56:03.612Z,64.31
2022-08-26T22:59:07.887Z,64.45
2022-08-26T23:02:11.959Z,64.34
2022-08-26T23:05:14.788Z,64.43
2022-08-26T23:08:16.923Z,64.35
2022-08-26T23:11:19.150Z,64.96
2022-08-26T23:14:20.953Z,67.13
2022-08-26T23:17:22.850Z,67.19
2022-08-26T23:20:24.834Z,66.64
2022-08-26T23:23:27.674Z,66.69
2022-08-26T23:26:29.536Z,65.13
2022-08-26T23:29:31.330Z,65.15
2022-08-26T23:32:33.104Z,65.81
2022-08-26T23:35:34.917Z,65.46
2022-08-26T23:38:36.754Z,65.83
2022-08-26T23:41:39.059Z,65.16
2022-08-26T23:44:41.072Z,65.60
2022-08-26T23:47:42.826Z,66.65
2022-08-26T23:51:03.433Z,67.78
2022-08-26T23:54:05.221Z,68.06
2022-08-26T23:57:07.886Z,66.12
